• Join FlightAware (Why Join?)
  • Login
  • US Flag 
11:35PM EDT


 

Airport Tracker/Info


-or-


 

Live Flight TrackerFlight Track Log ✈ SKW4511 ✈ 14-Feb-2014 ✈ KLAX - KSAN

Flight Track Log - Related Links

Times and Time Zones

All times are in EST time to prevent confusion due to time zone crossing. See the SKW4511 flight status page for this flight to view local times or setup timezone preferences in your user account.

Time Position Orientation Groundspeed Altitude Reporting Facility
EST Latitude Longitude Course Direction KTS MPH feet Rate Location/Type
02:19PM 33.9333 -118.4500 138° Southeast 179 206 2,000  Level Southern California TRACON
02:20PM 33.9000 -118.5000 231° Southwest 228 262 4,600 2,760 Climbing Southern California TRACON
02:21PM 33.8750 -118.5375 231° Southwest 238 274 6,200 2,640 Climbing Los Angeles Center
02:22PM 33.6671 -118.1337 140° Southeast  Level FlightAware Approximate
02:22PM 33.8050 -118.5497 188° South 294 338 8,700  Level Los Angeles Center
02:23PM 33.5998 -118.0651 138° Southeast  Level FlightAware Approximate
02:23PM 33.7306 -118.5042 153° Southeast 320 368 11,000  Level Los Angeles Center
02:24PM 33.5339 -117.9945 138° Southeast  Level FlightAware Approximate
02:24PM 33.6322 -118.4081 141° Southeast 387 445 11,000  Level Los Angeles Center
02:25PM 33.5686 -118.2997 125° Southeast 402 463 11,000  Level Los Angeles Center
02:26PM 33.5100 -118.1847 121° Southeast 406 467 11,000  Level Los Angeles Center
02:27PM 33.4531 -118.0706 121° Southeast 404 465 11,000  Level Los Angeles Center
02:28PM 33.3972 -117.9547 120° Southeast 403 464 11,000  Level Los Angeles Center
02:29PM 33.3297 -117.8164 120° Southeast 402 463 11,000  Level Los Angeles Center
02:30PM 33.2728 -117.7011 121° Southeast 403 464 11,000  Level Los Angeles Center
02:31PM 33.2072 -117.5958 127° Southeast 400 460 11,000  Level Los Angeles Center
02:32PM 33.1156 -117.5181 145° Southeast 404 465 11,000 -60 Level Los Angeles Center
02:33PM 33.0267 -117.4397 144° Southeast 400 460 10,900 -840 Descending Los Angeles Center
02:34PM 32.9481 -117.3361 132° Southeast 347 399 9,300 -1,860 Descending Los Angeles Center
02:35PM 32.8933 -117.2628 132° Southeast 308 354 7,100 -1,140 Descending Los Angeles Center
02:36PM 32.8444 -117.1953 131° Southeast 280 322 7,000 -120 Descending Los Angeles Center
02:37PM 32.8014 -117.1367 131° Southeast 254 292 6,900  Descending Los Angeles Center
02:38PM 32.7819 -117.0550 106° East 221 254 7,000  Climbing Los Angeles Center
02:39PM 32.7639 -116.9881 108° East 215 247 7,000 -540 Level Los Angeles Center
02:40PM 32.7500 -116.9167 103° East 218 251 6,000 -1,260 Descending Southern California TRACON
02:41PM 32.7000 -116.9333 196° South 218 251 4,600 -1,200 Descending Southern California TRACON
02:42PM 32.6833 -116.9833 248° West 194 223 3,600 -1,080 Descending Southern California TRACON
02:43PM 32.7000 -117.0500 287° West 182 209 2,500 -1,200 Descending Southern California TRACON
02:44PM 32.7167 -117.1000 292° West 182 209 1,400 -960 Descending Southern California TRACON
02:45PM 32.7167 -117.1500 270° West 129 148 600 -420 Descending Southern California TRACON
02:46PM 32.7336 -117.1922 296° West 130 150 400 -180 Descending Los Angeles Center